sensor_id;sensor_type;location;lat;lon;timestamp;P1;durP1;ratioP1;P2;durP2;ratioP2
4583;SDS011;2304;47.606;12.186;2023-04-01T00:02:30;15.87;;;10.90;;
4583;SDS011;2304;47.606;12.186;2023-04-01T00:07:32;15.60;;;11.30;;
4583;SDS011;2304;47.606;12.186;2023-04-01T00:12:34;11.40;;;9.13;;
4583;SDS011;2304;47.606;12.186;2023-04-01T00:17:37;12.90;;;9.73;;
4583;SDS011;2304;47.606;12.186;2023-04-01T00:22:39;11.33;;;8.10;;
4583;SDS011;2304;47.606;12.186;2023-04-01T00:27:41;12.70;;;9.37;;
4583;SDS011;2304;47.606;12.186;2023-04-01T00:32:44;13.53;;;9.60;;
4583;SDS011;2304;47.606;12.186;2023-04-01T00:37:46;14.93;;;10.03;;
4583;SDS011;2304;47.606;12.186;2023-04-01T00:42:48;11.00;;;9.70;;
4583;SDS011;2304;47.606;12.186;2023-04-01T00:47:51;16.77;;;9.70;;
4583;SDS011;2304;47.606;12.186;2023-04-01T00:52:53;16.47;;;11.80;;
4583;SDS011;2304;47.606;12.186;2023-04-01T00:57:55;18.50;;;11.50;;
4583;SDS011;2304;47.606;12.186;2023-04-01T01:03:01;14.27;;;11.17;;
4583;SDS011;2304;47.606;12.186;2023-04-01T01:08:04;13.17;;;9.90;;
4583;SDS011;2304;47.606;12.186;2023-04-01T01:13:15;14.43;;;10.33;;
4583;SDS011;2304;47.606;12.186;2023-04-01T01:18:22;15.40;;;10.30;;
4583;SDS011;2304;47.606;12.186;2023-04-01T01:23:51;15.70;;;11.57;;
4583;SDS011;2304;47.606;12.186;2023-04-01T01:29:10;15.60;;;10.87;;
4583;SDS011;2304;47.606;12.186;2023-04-01T01:34:22;13.30;;;9.87;;
4583;SDS011;2304;47.606;12.186;2023-04-01T01:39:30;13.43;;;10.10;;
4583;SDS011;2304;47.606;12.186;2023-04-01T01:44:35;15.60;;;12.17;;
4583;SDS011;2304;47.606;12.186;2023-04-01T01:49:38;16.00;;;12.50;;
4583;SDS011;2304;47.606;12.186;2023-04-01T01:54:48;17.30;;;13.10;;
4583;SDS011;2304;47.606;12.186;2023-04-01T01:59:50;17.80;;;13.73;;
4583;SDS011;2304;47.606;12.186;2023-04-01T02:04:56;19.97;;;12.80;;
4583;SDS011;2304;47.606;12.186;2023-04-01T02:09:59;18.97;;;13.83;;
4583;SDS011;2304;47.606;12.186;2023-04-01T02:15:06;19.43;;;13.27;;
4583;SDS011;2304;47.606;12.186;2023-04-01T02:20:11;16.80;;;12.90;;
4583;SDS011;2304;47.606;12.186;2023-04-01T02:25:19;13.63;;;10.77;;
4583;SDS011;2304;47.606;12.186;2023-04-01T02:30:23;16.70;;;10.40;;
4583;SDS011;2304;47.606;12.186;2023-04-01T02:35:27;14.73;;;10.77;;
4583;SDS011;2304;47.606;12.186;2023-04-01T02:40:39;17.10;;;12.10;;
4583;SDS011;2304;47.606;12.186;2023-04-01T02:45:42;19.83;;;13.60;;
4583;SDS011;2304;47.606;12.186;2023-04-01T02:50:44;17.57;;;13.53;;
4583;SDS011;2304;47.606;12.186;2023-04-01T02:55:47;18.60;;;14.57;;
4583;SDS011;2304;47.606;12.186;2023-04-01T03:00:51;19.73;;;14.70;;
4583;SDS011;2304;47.606;12.186;2023-04-01T03:05:53;20.17;;;15.10;;
4583;SDS011;2304;47.606;12.186;2023-04-01T03:10:57;21.57;;;15.10;;
4583;SDS011;2304;47.606;12.186;2023-04-01T03:15:59;18.87;;;14.10;;
4583;SDS011;2304;47.606;12.186;2023-04-01T03:21:12;18.33;;;14.30;;
4583;SDS011;2304;47.606;12.186;2023-04-01T03:26:16;19.60;;;13.83;;
4583;SDS011;2304;47.606;12.186;2023-04-01T03:31:18;26.40;;;15.13;;
4583;SDS011;2304;47.606;12.186;2023-04-01T03:36:20;19.97;;;14.40;;
4583;SDS011;2304;47.606;12.186;2023-04-01T03:41:23;19.10;;;13.20;;
4583;SDS011;2304;47.606;12.186;2023-04-01T03:46:25;23.00;;;12.17;;
4583;SDS011;2304;47.606;12.186;2023-04-01T03:51:27;15.57;;;11.10;;
4583;SDS011;2304;47.606;12.186;2023-04-01T03:56:30;18.30;;;11.83;;
4583;SDS011;2304;47.606;12.186;2023-04-01T04:01:32;18.30;;;11.67;;
4583;SDS011;2304;47.606;12.186;2023-04-01T04:06:34;16.40;;;11.70;;
4583;SDS011;2304;47.606;12.186;2023-04-01T04:11:37;18.13;;;11.60;;
4583;SDS011;2304;47.606;12.186;2023-04-01T04:16:39;14.50;;;10.90;;
4583;SDS011;2304;47.606;12.186;2023-04-01T04:21:41;26.03;;;10.20;;
4583;SDS011;2304;47.606;12.186;2023-04-01T04:26:44;16.40;;;9.40;;
4583;SDS011;2304;47.606;12.186;2023-04-01T04:31:46;15.70;;;8.97;;
4583;SDS011;2304;47.606;12.186;2023-04-01T04:36:48;14.47;;;9.20;;
4583;SDS011;2304;47.606;12.186;2023-04-01T04:41:51;12.40;;;8.63;;
4583;SDS011;2304;47.606;12.186;2023-04-01T04:46:53;14.20;;;9.40;;
4583;SDS011;2304;47.606;12.186;2023-04-01T04:51:55;16.10;;;10.57;;
4583;SDS011;2304;47.606;12.186;2023-04-01T04:56:58;17.70;;;10.87;;
4583;SDS011;2304;47.606;12.186;2023-04-01T05:02:00;19.17;;;10.70;;
4583;SDS011;2304;47.606;12.186;2023-04-01T05:07:02;16.77;;;11.63;;
4583;SDS011;2304;47.606;12.186;2023-04-01T05:12:05;17.53;;;10.87;;
4583;SDS011;2304;47.606;12.186;2023-04-01T05:17:08;17.60;;;11.30;;
4583;SDS011;2304;47.606;12.186;2023-04-01T05:22:10;17.53;;;11.90;;
4583;SDS011;2304;47.606;12.186;2023-04-01T05:27:13;16.97;;;11.90;;
4583;SDS011;2304;47.606;12.186;2023-04-01T05:32:15;19.90;;;11.80;;
4583;SDS011;2304;47.606;12.186;2023-04-01T05:37:17;19.83;;;11.87;;
4583;SDS011;2304;47.606;12.186;2023-04-01T05:42:21;16.90;;;11.87;;
4583;SDS011;2304;47.606;12.186;2023-04-01T05:47:23;13.20;;;9.63;;
4583;SDS011;2304;47.606;12.186;2023-04-01T05:52:24;11.73;;;8.17;;
4583;SDS011;2304;47.606;12.186;2023-04-01T05:57:28;12.57;;;8.67;;
4583;SDS011;2304;47.606;12.186;2023-04-01T06:02:29;17.17;;;8.80;;
4583;SDS011;2304;47.606;12.186;2023-04-01T06:07:31;14.90;;;8.70;;
4583;SDS011;2304;47.606;12.186;2023-04-01T06:12:38;18.13;;;8.70;;
4583;SDS011;2304;47.606;12.186;2023-04-01T06:17:52;14.97;;;7.83;;
4583;SDS011;2304;47.606;12.186;2023-04-01T06:23:15;13.27;;;9.40;;
4583;SDS011;2304;47.606;12.186;2023-04-01T06:28:45;16.20;;;10.73;;
4583;SDS011;2304;47.606;12.186;2023-04-01T06:34:08;13.03;;;7.57;;
4583;SDS011;2304;47.606;12.186;2023-04-01T06:39:31;11.80;;;8.40;;
4583;SDS011;2304;47.606;12.186;2023-04-01T06:44:56;11.07;;;7.80;;
4583;SDS011;2304;47.606;12.186;2023-04-01T06:50:09;11.00;;;9.10;;
4583;SDS011;2304;47.606;12.186;2023-04-01T06:55:24;13.47;;;9.73;;
4583;SDS011;2304;47.606;12.186;2023-04-01T07:00:32;13.93;;;10.03;;
4583;SDS011;2304;47.606;12.186;2023-04-01T07:05:36;13.77;;;9.43;;
4583;SDS011;2304;47.606;12.186;2023-04-01T07:10:41;15.93;;;11.20;;
4583;SDS011;2304;47.606;12.186;2023-04-01T07:15:51;18.40;;;11.67;;
4583;SDS011;2304;47.606;12.186;2023-04-01T07:20:59;14.43;;;10.70;;
4583;SDS011;2304;47.606;12.186;2023-04-01T07:26:04;16.87;;;11.60;;
4583;SDS011;2304;47.606;12.186;2023-04-01T07:31:16;15.67;;;12.00;;
4583;SDS011;2304;47.606;12.186;2023-04-01T07:36:26;14.47;;;11.33;;
4583;SDS011;2304;47.606;12.186;2023-04-01T07:41:37;17.13;;;12.87;;
4583;SDS011;2304;47.606;12.186;2023-04-01T07:47:01;21.60;;;12.30;;
4583;SDS011;2304;47.606;12.186;2023-04-01T07:52:14;12.20;;;9.43;;
4583;SDS011;2304;47.606;12.186;2023-04-01T07:57:22;11.47;;;9.00;;
4583;SDS011;2304;47.606;12.186;2023-04-01T08:02:36;12.50;;;7.10;;
4583;SDS011;2304;47.606;12.186;2023-04-01T08:07:53;9.70;;;7.87;;
4583;SDS011;2304;47.606;12.186;2023-04-01T08:13:05;9.93;;;6.97;;
4583;SDS011;2304;47.606;12.186;2023-04-01T08:18:22;9.40;;;5.60;;
4583;SDS011;2304;47.606;12.186;2023-04-01T08:23:36;7.97;;;6.60;;
4583;SDS011;2304;47.606;12.186;2023-04-01T08:28:45;7.30;;;5.63;;
4583;SDS011;2304;47.606;12.186;2023-04-01T08:33:54;4.63;;;3.50;;
4583;SDS011;2304;47.606;12.186;2023-04-01T08:38:57;4.80;;;3.20;;
4583;SDS011;2304;47.606;12.186;2023-04-01T08:44:09;5.80;;;4.17;;
4583;SDS011;2304;47.606;12.186;2023-04-01T08:49:30;4.80;;;2.93;;
4583;SDS011;2304;47.606;12.186;2023-04-01T08:54:44;5.50;;;3.70;;
4583;SDS011;2304;47.606;12.186;2023-04-01T08:59:58;4.03;;;2.70;;
4583;SDS011;2304;47.606;12.186;2023-04-01T09:10:56;3.70;;;2.30;;
4583;SDS011;2304;47.606;12.186;2023-04-01T09:16:09;4.60;;;2.80;;
4583;SDS011;2304;47.606;12.186;2023-04-01T09:21:24;3.57;;;1.97;;
4583;SDS011;2304;47.606;12.186;2023-04-01T09:26:48;5.57;;;2.50;;
4583;SDS011;2304;47.606;12.186;2023-04-01T09:32:14;4.63;;;2.63;;
4583;SDS011;2304;47.606;12.186;2023-04-01T09:37:50;2.30;;;1.70;;
4583;SDS011;2304;47.606;12.186;2023-04-01T09:48:29;2.43;;;1.90;;
4583;SDS011;2304;47.606;12.186;2023-04-01T09:53:48;3.90;;;1.90;;
4583;SDS011;2304;47.606;12.186;2023-04-01T09:59:01;2.77;;;1.50;;
4583;SDS011;2304;47.606;12.186;2023-04-01T10:04:44;2.60;;;1.50;;
4583;SDS011;2304;47.606;12.186;2023-04-01T10:15:55;2.33;;;1.60;;
4583;SDS011;2304;47.606;12.186;2023-04-01T10:21:16;2.53;;;1.43;;
4583;SDS011;2304;47.606;12.186;2023-04-01T10:27:03;2.73;;;1.40;;
4583;SDS011;2304;47.606;12.186;2023-04-01T10:44:13;1.90;;;1.20;;
4583;SDS011;2304;47.606;12.186;2023-04-01T10:49:46;2.53;;;1.40;;
4583;SDS011;2304;47.606;12.186;2023-04-01T10:55:14;2.40;;;1.20;;
4583;SDS011;2304;47.606;12.186;2023-04-01T11:00:49;1.83;;;1.30;;
4583;SDS011;2304;47.606;12.186;2023-04-01T11:06:13;2.50;;;1.30;;
4583;SDS011;2304;47.606;12.186;2023-04-01T11:11:47;3.20;;;1.40;;
4583;SDS011;2304;47.606;12.186;2023-04-01T11:17:35;2.30;;;1.30;;
4583;SDS011;2304;47.606;12.186;2023-04-01T11:23:01;2.53;;;1.27;;
4583;SDS011;2304;47.606;12.186;2023-04-01T11:28:16;3.37;;;1.30;;
4583;SDS011;2304;47.606;12.186;2023-04-01T11:33:31;2.00;;;1.40;;
4583;SDS011;2304;47.606;12.186;2023-04-01T11:38:48;2.23;;;1.47;;
4583;SDS011;2304;47.606;12.186;2023-04-01T11:44:14;2.00;;;1.03;;
4583;SDS011;2304;47.606;12.186;2023-04-01T11:49:27;2.13;;;1.20;;
4583;SDS011;2304;47.606;12.186;2023-04-01T11:54:40;2.53;;;1.30;;
4583;SDS011;2304;47.606;12.186;2023-04-01T12:00:22;6.03;;;3.27;;
4583;SDS011;2304;47.606;12.186;2023-04-01T12:05:43;2.07;;;1.47;;
4583;SDS011;2304;47.606;12.186;2023-04-01T12:10:53;3.00;;;1.50;;
4583;SDS011;2304;47.606;12.186;2023-04-01T12:16:14;2.03;;;1.27;;
4583;SDS011;2304;47.606;12.186;2023-04-01T12:21:26;10.40;;;6.50;;
4583;SDS011;2304;47.606;12.186;2023-04-01T12:26:40;39.97;;;18.03;;
4583;SDS011;2304;47.606;12.186;2023-04-01T12:32:01;4.73;;;2.60;;
4583;SDS011;2304;47.606;12.186;2023-04-01T12:37:15;2.60;;;1.40;;
4583;SDS011;2304;47.606;12.186;2023-04-01T12:42:28;2.50;;;1.63;;
4583;SDS011;2304;47.606;12.186;2023-04-01T12:47:49;3.17;;;2.30;;
4583;SDS011;2304;47.606;12.186;2023-04-01T12:53:10;3.07;;;2.17;;
4583;SDS011;2304;47.606;12.186;2023-04-01T12:58:39;6.90;;;4.90;;
4583;SDS011;2304;47.606;12.186;2023-04-01T13:03:55;20.37;;;13.93;;
4583;SDS011;2304;47.606;12.186;2023-04-01T13:09:28;1.50;;;1.00;;
4583;SDS011;2304;47.606;12.186;2023-04-01T13:20:11;5.73;;;2.70;;
4583;SDS011;2304;47.606;12.186;2023-04-01T13:25:23;2.20;;;1.17;;
4583;SDS011;2304;47.606;12.186;2023-04-01T13:30:33;8.50;;;4.73;;
4583;SDS011;2304;47.606;12.186;2023-04-01T13:35:42;1.30;;;0.70;;
4583;SDS011;2304;47.606;12.186;2023-04-01T13:40:53;1.20;;;0.70;;
4583;SDS011;2304;47.606;12.186;2023-04-01T13:51:49;3.10;;;2.00;;
4583;SDS011;2304;47.606;12.186;2023-04-01T13:57:15;3.30;;;2.47;;
4583;SDS011;2304;47.606;12.186;2023-04-01T14:08:02;1.70;;;1.30;;
4583;SDS011;2304;47.606;12.186;2023-04-01T14:13:14;1.40;;;0.90;;
4583;SDS011;2304;47.606;12.186;2023-04-01T14:29:51;2.37;;;1.70;;
4583;SDS011;2304;47.606;12.186;2023-04-01T14:35:11;1.47;;;0.77;;
4583;SDS011;2304;47.606;12.186;2023-04-01T14:40:48;1.37;;;0.80;;
4583;SDS011;2304;47.606;12.186;2023-04-01T14:51:42;1.20;;;0.70;;
4583;SDS011;2304;47.606;12.186;2023-04-01T14:56:47;1.30;;;0.80;;
4583;SDS011;2304;47.606;12.186;2023-04-01T15:01:51;1.30;;;0.80;;
4583;SDS011;2304;47.606;12.186;2023-04-01T15:07:04;1.30;;;0.80;;
4583;SDS011;2304;47.606;12.186;2023-04-01T15:12:22;1.27;;;0.77;;
4583;SDS011;2304;47.606;12.186;2023-04-01T15:23:04;1.30;;;0.70;;
4583;SDS011;2304;47.606;12.186;2023-04-01T15:28:17;1.70;;;1.03;;
4583;SDS011;2304;47.606;12.186;2023-04-01T15:33:33;1.70;;;0.90;;
4583;SDS011;2304;47.606;12.186;2023-04-01T15:38:53;1.20;;;0.70;;
4583;SDS011;2304;47.606;12.186;2023-04-01T15:44:01;1.30;;;0.80;;
4583;SDS011;2304;47.606;12.186;2023-04-01T15:49:05;1.30;;;0.80;;
4583;SDS011;2304;47.606;12.186;2023-04-01T15:54:28;2.53;;;0.80;;
4583;SDS011;2304;47.606;12.186;2023-04-01T15:59:53;1.27;;;0.70;;
4583;SDS011;2304;47.606;12.186;2023-04-01T16:05:08;1.20;;;0.70;;
4583;SDS011;2304;47.606;12.186;2023-04-01T16:10:31;1.77;;;1.07;;
4583;SDS011;2304;47.606;12.186;2023-04-01T16:15:50;8.70;;;4.77;;
4583;SDS011;2304;47.606;12.186;2023-04-01T16:21:00;1.70;;;1.10;;
4583;SDS011;2304;47.606;12.186;2023-04-01T16:26:08;2.97;;;1.50;;
4583;SDS011;2304;47.606;12.186;2023-04-01T16:31:25;2.33;;;1.40;;
4583;SDS011;2304;47.606;12.186;2023-04-01T16:36:34;4.20;;;1.63;;
4583;SDS011;2304;47.606;12.186;2023-04-01T16:41:47;2.77;;;1.07;;
4583;SDS011;2304;47.606;12.186;2023-04-01T16:46:53;2.27;;;1.50;;
4583;SDS011;2304;47.606;12.186;2023-04-01T16:52:04;5.53;;;3.40;;
4583;SDS011;2304;47.606;12.186;2023-04-01T16:57:20;3.17;;;2.17;;
4583;SDS011;2304;47.606;12.186;2023-04-01T17:02:26;2.40;;;1.90;;
4583;SDS011;2304;47.606;12.186;2023-04-01T17:07:36;3.30;;;2.17;;
4583;SDS011;2304;47.606;12.186;2023-04-01T17:12:50;9.17;;;5.83;;
4583;SDS011;2304;47.606;12.186;2023-04-01T17:18:02;3.30;;;2.20;;
4583;SDS011;2304;47.606;12.186;2023-04-01T17:23:14;2.00;;;1.70;;
4583;SDS011;2304;47.606;12.186;2023-04-01T17:28:30;3.37;;;1.90;;
4583;SDS011;2304;47.606;12.186;2023-04-01T17:33:47;7.20;;;4.57;;
4583;SDS011;2304;47.606;12.186;2023-04-01T17:39:12;4.17;;;2.60;;
4583;SDS011;2304;47.606;12.186;2023-04-01T17:44:31;94.97;;;44.30;;
4583;SDS011;2304;47.606;12.186;2023-04-01T17:49:49;183.10;;;86.37;;
4583;SDS011;2304;47.606;12.186;2023-04-01T17:55:07;47.97;;;19.97;;
4583;SDS011;2304;47.606;12.186;2023-04-01T18:00:33;52.33;;;20.13;;
4583;SDS011;2304;47.606;12.186;2023-04-01T18:05:52;20.47;;;9.27;;
4583;SDS011;2304;47.606;12.186;2023-04-01T18:11:06;10.33;;;7.20;;
4583;SDS011;2304;47.606;12.186;2023-04-01T18:16:21;6.90;;;5.20;;
4583;SDS011;2304;47.606;12.186;2023-04-01T18:21:35;3.03;;;1.80;;
4583;SDS011;2304;47.606;12.186;2023-04-01T18:26:44;5.70;;;4.83;;
4583;SDS011;2304;47.606;12.186;2023-04-01T18:31:54;4.07;;;2.50;;
4583;SDS011;2304;47.606;12.186;2023-04-01T18:37:12;11.43;;;9.70;;
4583;SDS011;2304;47.606;12.186;2023-04-01T18:42:23;6.43;;;5.33;;
4583;SDS011;2304;47.606;12.186;2023-04-01T18:47:38;3.37;;;2.60;;
4583;SDS011;2304;47.606;12.186;2023-04-01T18:52:43;2.50;;;1.90;;
4583;SDS011;2304;47.606;12.186;2023-04-01T18:57:47;3.73;;;2.40;;
4583;SDS011;2304;47.606;12.186;2023-04-01T19:02:55;6.17;;;3.33;;
4583;SDS011;2304;47.606;12.186;2023-04-01T19:08:14;4.67;;;3.00;;
4583;SDS011;2304;47.606;12.186;2023-04-01T19:13:21;5.50;;;2.80;;
4583;SDS011;2304;47.606;12.186;2023-04-01T19:18:37;2.10;;;1.47;;
4583;SDS011;2304;47.606;12.186;2023-04-01T19:29:42;3.90;;;1.60;;
4583;SDS011;2304;47.606;12.186;2023-04-01T19:34:59;3.80;;;2.30;;
4583;SDS011;2304;47.606;12.186;2023-04-01T19:40:33;3.07;;;1.77;;
4583;SDS011;2304;47.606;12.186;2023-04-01T19:45:43;2.27;;;1.33;;
4583;SDS011;2304;47.606;12.186;2023-04-01T19:50:55;1.97;;;1.20;;
4583;SDS011;2304;47.606;12.186;2023-04-01T19:56:01;2.10;;;1.40;;
4583;SDS011;2304;47.606;12.186;2023-04-01T20:01:14;2.53;;;1.70;;
4583;SDS011;2304;47.606;12.186;2023-04-01T20:06:28;3.07;;;1.50;;
4583;SDS011;2304;47.606;12.186;2023-04-01T20:11:37;2.70;;;1.43;;
4583;SDS011;2304;47.606;12.186;2023-04-01T20:16:49;3.20;;;1.90;;
4583;SDS011;2304;47.606;12.186;2023-04-01T20:22:00;7.20;;;4.57;;
4583;SDS011;2304;47.606;12.186;2023-04-01T20:27:07;6.50;;;3.23;;
4583;SDS011;2304;47.606;12.186;2023-04-01T20:32:19;6.10;;;2.73;;
4583;SDS011;2304;47.606;12.186;2023-04-01T20:37:38;4.87;;;2.30;;
4583;SDS011;2304;47.606;12.186;2023-04-01T20:42:49;3.13;;;1.70;;
4583;SDS011;2304;47.606;12.186;2023-04-01T20:48:24;7.13;;;1.97;;
4583;SDS011;2304;47.606;12.186;2023-04-01T20:53:43;1.57;;;1.03;;
4583;SDS011;2304;47.606;12.186;2023-04-01T20:58:53;3.70;;;1.50;;
4583;SDS011;2304;47.606;12.186;2023-04-01T21:04:09;3.07;;;1.57;;
4583;SDS011;2304;47.606;12.186;2023-04-01T21:09:31;8.53;;;3.60;;
4583;SDS011;2304;47.606;12.186;2023-04-01T21:20:29;3.43;;;1.60;;
4583;SDS011;2304;47.606;12.186;2023-04-01T21:25:58;3.30;;;2.00;;
4583;SDS011;2304;47.606;12.186;2023-04-01T21:36:38;4.00;;;2.60;;
4583;SDS011;2304;47.606;12.186;2023-04-01T21:42:02;6.70;;;2.23;;
4583;SDS011;2304;47.606;12.186;2023-04-01T21:47:23;4.50;;;2.70;;
4583;SDS011;2304;47.606;12.186;2023-04-01T22:04:19;5.00;;;2.10;;
4583;SDS011;2304;47.606;12.186;2023-04-01T22:09:32;3.70;;;1.97;;
4583;SDS011;2304;47.606;12.186;2023-04-01T22:14:40;6.13;;;1.57;;
4583;SDS011;2304;47.606;12.186;2023-04-01T22:19:55;3.70;;;2.00;;
4583;SDS011;2304;47.606;12.186;2023-04-01T22:25:10;3.57;;;2.03;;
4583;SDS011;2304;47.606;12.186;2023-04-01T22:30:18;3.27;;;1.60;;
4583;SDS011;2304;47.606;12.186;2023-04-01T22:35:29;2.77;;;1.70;;
4583;SDS011;2304;47.606;12.186;2023-04-01T22:40:39;2.70;;;1.40;;
4583;SDS011;2304;47.606;12.186;2023-04-01T22:45:50;1.80;;;1.13;;
4583;SDS011;2304;47.606;12.186;2023-04-01T22:51:03;2.57;;;1.40;;
4583;SDS011;2304;47.606;12.186;2023-04-01T22:56:13;4.93;;;2.60;;
4583;SDS011;2304;47.606;12.186;2023-04-01T23:01:34;5.03;;;2.80;;
4583;SDS011;2304;47.606;12.186;2023-04-01T23:06:42;5.87;;;2.03;;
4583;SDS011;2304;47.606;12.186;2023-04-01T23:11:49;3.70;;;2.00;;
4583;SDS011;2304;47.606;12.186;2023-04-01T23:16:56;7.13;;;2.50;;
4583;SDS011;2304;47.606;12.186;2023-04-01T23:22:04;5.53;;;3.07;;
4583;SDS011;2304;47.606;12.186;2023-04-01T23:27:15;3.17;;;2.27;;
4583;SDS011;2304;47.606;12.186;2023-04-01T23:32:22;5.83;;;3.10;;
4583;SDS011;2304;47.606;12.186;2023-04-01T23:37:27;7.00;;;3.10;;
4583;SDS011;2304;47.606;12.186;2023-04-01T23:42:29;3.00;;;1.70;;
4583;SDS011;2304;47.606;12.186;2023-04-01T23:47:34;2.53;;;1.50;;
4583;SDS011;2304;47.606;12.186;2023-04-01T23:52:41;2.00;;;1.40;;
4583;SDS011;2304;47.606;12.186;2023-04-01T23:58:00;1.90;;;1.20;;
